Terminal Aerodrome Forecast
Issued by NWS Cleveland, OH

Home | Current Version | Previous Version | Graphics & Text | Print | Product List | Glossary On
Versions: 1 2 3 4 5 6 7 8 9 10 11 12 13 14 15 16 17 18 19 20 21 22
000
FTUS41 KCLE 131132
TAFCAK
TAF
KCAK 131132Z 1312/1412 26008KT P6SM SCT025 OVC050
      TEMPO 1312/1314 BKN025
     FM131800 21010KT 2SM -SN BKN015 OVC025
      TEMPO 1401/1405 1/2SM SN OVC006
     FM140900 34010KT P6SM OVC015=

USA.gov is the U.S. government's official web portal to all federal, state and local government web resources and services.